Time;durP1;ratioP1;P1;durP2;ratioP2;P2;SDS_P1;SDS_P2;PMS_P1;PMS_P2;Temp;Humidity;BMP_temperature;BMP_pressure;BME280_temperature;BME280_humidity;BME280_pressure;Samples;Min_cycle;Max_cycle;Signal;HPM_P1;HPM_P2
2021/12/04 00:01:47;;;;;;;2.50;2.40;;;;;;;7.19;63.71;99861.59;4951226;28;97389;-87
2021/12/04 00:04:12;;;;;;;3.83;2.53;;;;;;;7.26;63.79;99855.66;4957284;28;96871;-86
2021/12/04 00:06:39;;;;;;;3.00;2.80;;;;;;;7.24;63.52;99861.63;4973264;28;101518;-85
2021/12/04 00:09:05;;;;;;;2.20;2.10;;;;;;;7.24;63.59;99853.44;4952551;28;98415;-85
2021/12/04 00:11:37;;;;;;;2.07;1.97;;;;;;;7.24;63.61;99850.69;4962245;28;96809;-87
2021/12/04 00:14:03;;;;;;;2.07;1.97;;;;;;;7.22;63.96;99847.69;4950001;28;97001;-85
2021/12/04 00:16:28;;;;;;;2.60;2.40;;;;;;;7.25;63.78;99862.38;4949897;28;97690;-83
2021/12/04 00:18:53;;;;;;;2.23;2.10;;;;;;;7.28;63.95;99853.94;4948823;28;97932;-86
2021/12/04 00:21:19;;;;;;;1.83;1.70;;;;;;;7.25;63.57;99837.78;4962681;28;96891;-86
2021/12/04 00:23:44;;;;;;;1.60;1.50;;;;;;;7.22;63.98;99846.94;4947721;28;97188;-85
2021/12/04 00:26:10;;;;;;;1.80;1.70;;;;;;;7.23;63.95;99846.44;4947773;28;98270;-85
2021/12/04 00:28:35;;;;;;;1.87;1.77;;;;;;;7.22;63.98;99853.16;4947744;28;97697;-85
2021/12/04 00:31:07;;;;;;;2.07;1.97;;;;;;;7.23;64.05;99851.91;4952960;28;97284;-87
2021/12/04 00:33:34;;;;;;;2.10;2.00;;;;;;;7.26;63.85;99850.94;4946399;28;97970;-85
2021/12/04 00:36:02;;;;;;;1.77;1.67;;;;;;;7.26;63.75;99842.75;4945846;28;98914;-84
2021/12/04 00:49:23;;;;;;;3.00;1.87;;;;;;;7.15;63.88;99850.88;4947186;28;100944;-86
2021/12/04 00:51:54;;;;;;;2.73;2.37;;;;;;;7.17;64.11;99834.72;4949688;28;96922;-86
2021/12/04 00:54:21;;;;;;;1.90;1.80;;;;;;;7.19;64.09;99856.88;4944851;28;97318;-84
2021/12/04 00:56:47;;;;;;;5.47;2.93;;;;;;;7.22;63.88;99844.97;4945183;28;100267;-84
2021/12/04 00:59:13;;;;;;;1.77;1.70;;;;;;;7.27;63.88;99829.81;4945636;28;99796;-84
2021/12/04 01:01:40;;;;;;;1.97;1.87;;;;;;;7.27;63.82;99870.84;4945435;28;97099;-86
2021/12/04 01:04:10;;;;;;;2.27;2.07;;;;;;;7.31;63.96;99825.63;4946144;28;97320;-85
2021/12/04 01:06:35;;;;;;;2.30;2.20;;;;;;;7.30;63.93;99845.25;4960872;28;99046;-85
2021/12/04 01:09:01;;;;;;;2.00;1.90;;;;;;;7.38;63.63;99838.81;4945431;28;97619;-84
2021/12/04 01:11:26;;;;;;;2.00;1.90;;;;;;;7.39;63.68;99843.06;4945887;28;96974;-85
2021/12/04 01:13:52;;;;;;;2.33;2.10;;;;;;;7.40;63.66;99830.13;4942447;28;96899;-84
2021/12/04 01:16:17;;;;;;;2.50;2.30;;;;;;;7.44;63.75;99842.34;4946417;28;98049;-85
2021/12/04 01:18:44;;;;;;;2.47;2.27;;;;;;;7.43;63.72;99818.94;4946390;28;99385;-85
2021/12/04 01:21:10;;;;;;;2.20;2.10;;;;;;;7.44;63.60;99825.94;4944548;28;97667;-84
2021/12/04 01:23:36;;;;;;;1.97;1.87;;;;;;;7.50;63.61;99820.47;4947379;28;97406;-85
2021/12/04 01:26:01;;;;;;;2.50;2.40;;;;;;;7.50;63.57;99815.75;4963741;28;98816;-84
2021/12/04 01:28:27;;;;;;;2.10;2.00;;;;;;;7.47;63.36;99819.47;4944336;28;97065;-85
2021/12/04 01:30:52;;;;;;;2.73;2.40;;;;;;;7.46;63.71;99814.50;4962176;28;96919;-84
2021/12/04 01:33:18;;;;;;;2.40;2.30;;;;;;;7.45;63.47;99811.00;4942448;28;97644;-84
2021/12/04 01:35:43;;;;;;;3.40;1.87;;;;;;;7.48;63.61;99804.56;4946849;28;98602;-84
2021/12/04 01:38:10;;;;;;;2.00;1.90;;;;;;;7.46;63.51;99807.03;4945306;28;96838;-85
2021/12/04 01:40:35;;;;;;;2.47;2.37;;;;;;;7.49;63.66;99803.31;4946219;28;98072;-84
2021/12/04 01:43:01;;;;;;;1.73;1.63;;;;;;;7.51;63.51;99800.81;4942858;28;97575;-85
2021/12/04 01:45:27;;;;;;;4.10;2.40;;;;;;;7.49;63.44;99806.03;4942272;28;97514;-85
2021/12/04 01:48:01;;;;;;;2.20;2.00;;;;;;;7.47;63.26;99805.78;4943021;28;98295;-84
2021/12/04 01:50:27;;;;;;;2.30;2.20;;;;;;;7.47;63.41;99796.81;4960303;28;96835;-84
2021/12/04 01:52:55;;;;;;;3.73;2.13;;;;;;;7.49;63.63;99800.56;4945850;28;96779;-84
2021/12/04 01:55:25;;;;;;;2.50;2.20;;;;;;;7.48;63.32;99810.03;4946085;28;96947;-85
2021/12/04 01:57:51;;;;;;;2.20;2.10;;;;;;;7.43;63.63;99813.47;4945374;28;97449;-84
2021/12/04 02:00:16;;;;;;;2.80;2.60;;;;;;;7.34;63.61;99782.84;4945758;28;97759;-84
2021/12/04 02:02:41;;;;;;;2.50;2.30;;;;;;;7.41;63.34;99826.16;4944373;28;97242;-84
2021/12/04 02:05:07;;;;;;;2.33;1.93;;;;;;;7.40;63.53;99791.84;4944788;28;98524;-84
2021/12/04 02:07:33;;;;;;;4.10;2.23;;;;;;;7.40;63.52;99798.03;4959094;28;98584;-84
2021/12/04 02:09:58;;;;;;;2.30;2.10;;;;;;;7.39;63.45;99788.34;4945493;28;97005;-85
2021/12/04 02:12:24;;;;;;;2.37;2.27;;;;;;;7.39;63.65;99788.34;4945536;28;97336;-84
2021/12/04 02:14:49;;;;;;;2.10;2.00;;;;;;;7.39;63.64;99791.06;4938668;28;99011;-85
2021/12/04 02:17:15;;;;;;;2.57;2.37;;;;;;;7.41;63.69;99790.56;4944349;28;99587;-84
2021/12/04 02:19:40;;;;;;;2.30;2.20;;;;;;;7.43;63.54;99796.31;4961047;28;97074;-85
2021/12/04 02:22:06;;;;;;;1.97;1.87;;;;;;;7.45;63.75;99796.56;4938690;28;98616;-85
2021/12/04 02:24:31;;;;;;;3.57;2.10;;;;;;;7.44;63.44;99806.78;4955825;28;97945;-84
2021/12/04 02:26:56;;;;;;;1.80;1.70;;;;;;;7.41;63.43;99794.06;4940227;28;98923;-84
2021/12/04 02:29:22;;;;;;;2.17;2.07;;;;;;;7.41;63.30;99813.22;4941988;28;97328;-85
2021/12/04 02:31:49;;;;;;;2.40;1.97;;;;;;;7.39;63.58;99807.50;4944441;28;96882;-85
2021/12/04 02:34:27;;;;;;;2.83;2.27;;;;;;;7.41;63.68;99785.09;4942157;28;97634;-84
2021/12/04 02:36:53;;;;;;;2.60;2.40;;;;;;;7.43;63.42;99796.31;4937835;28;101702;-84
2021/12/04 02:39:31;;;;;;;2.63;2.03;;;;;;;7.39;63.54;99777.41;4945472;28;97877;-84
2021/12/04 02:41:58;;;;;;;1.87;1.77;;;;;;;7.40;63.62;99775.41;4941481;28;97313;-84
2021/12/04 02:44:39;;;;;;;2.10;2.00;;;;;;;7.42;63.57;99772.94;4958571;28;100132;-84
2021/12/04 02:47:07;;;;;;;1.83;1.70;;;;;;;7.41;63.46;99771.44;4939096;28;102956;-84
2021/12/04 02:49:32;;;;;;;3.10;1.80;;;;;;;7.43;63.56;99775.16;4943445;28;97449;-84
2021/12/04 02:52:03;;;;;;;2.20;2.10;;;;;;;7.43;63.48;99766.22;4943226;28;97039;-85
2021/12/04 02:54:29;;;;;;;3.43;1.90;;;;;;;7.42;63.59;99776.44;4940707;28;98256;-84
2021/12/04 02:56:54;;;;;;;2.37;2.17;;;;;;;7.42;63.60;99797.56;4943849;28;98817;-84
2021/12/04 02:59:20;;;;;;;2.33;2.00;;;;;;;7.44;63.42;99773.19;4945886;28;97871;-84
2021/12/04 03:01:45;;;;;;;2.03;1.80;;;;;;;7.43;63.39;99752.53;4944935;28;97658;-84
2021/12/04 03:04:12;;;;;;;1.90;1.80;;;;;;;7.44;63.30;99749.31;4944708;28;98633;-85
2021/12/04 03:06:44;;;;;;;1.40;1.40;;;;;;;7.45;63.29;99741.84;4959592;28;97437;-85
2021/12/04 03:09:10;;;;;;;2.20;2.10;;;;;;;7.48;63.49;99760.00;4960166;28;97283;-84
2021/12/04 03:11:36;;;;;;;1.70;1.60;;;;;;;7.47;63.28;99734.63;4964975;28;97350;-85
2021/12/04 03:14:01;;;;;;;1.60;1.50;;;;;;;7.53;63.29;99746.34;4969952;28;96892;-85
2021/12/04 03:16:27;;;;;;;2.10;2.00;;;;;;;7.56;63.36;99745.38;4945600;28;99753;-85
2021/12/04 03:18:53;;;;;;;3.17;2.13;;;;;;;7.52;63.29;99733.16;4947666;28;96957;-84
2021/12/04 03:21:18;;;;;;;2.40;1.63;;;;;;;7.61;63.21;99732.19;4944414;28;97226;-84
2021/12/04 03:24:01;;;;;;;2.03;1.93;;;;;;;7.62;63.08;99734.44;4946741;28;100360;-86
2021/12/04 03:26:27;;;;;;;1.80;1.70;;;;;;;7.62;63.20;99730.94;4946515;28;98522;-85
2021/12/04 03:28:55;;;;;;;1.90;1.80;;;;;;;7.61;63.28;99722.00;4945089;28;96954;-85
2021/12/04 03:42:20;;;;;;;1.57;1.47;;;;;;;7.58;63.11;99710.03;4949454;28;97133;-85
2021/12/04 03:44:45;;;;;;;2.60;2.40;;;;;;;7.62;63.28;99709.06;4949032;28;97225;-84
2021/12/04 03:47:11;;;;;;;1.60;1.50;;;;;;;7.62;63.33;99731.72;4945125;28;97828;-84
2021/12/04 03:49:40;;;;;;;1.57;1.47;;;;;;;7.63;62.98;99711.28;4946687;28;97127;-85
2021/12/04 03:52:09;;;;;;;2.43;2.17;;;;;;;7.64;63.05;99718.28;4946956;28;97191;-84
2021/12/04 03:54:35;;;;;;;2.13;1.97;;;;;;;7.65;63.18;99727.97;4961267;28;97688;-84
2021/12/04 03:57:03;;;;;;;1.90;1.73;;;;;;;7.64;63.10;99712.81;4944005;28;97409;-84
2021/12/04 03:59:29;;;;;;;2.03;1.93;;;;;;;7.66;63.10;99715.03;4942310;28;97220;-84
2021/12/04 04:01:55;;;;;;;2.43;1.73;;;;;;;7.68;62.98;99707.06;4946191;28;96672;-84
2021/12/04 04:04:20;;;;;;;2.30;1.90;;;;;;;7.65;63.16;99700.59;4963470;28;99474;-85
2021/12/04 04:06:46;;;;;;;2.20;2.10;;;;;;;7.63;63.07;99714.03;4946236;28;97419;-85
2021/12/04 04:09:12;;;;;;;2.83;2.20;;;;;;;7.66;63.02;99709.56;4944794;28;97288;-85
2021/12/04 04:11:37;;;;;;;2.23;2.03;;;;;;;7.65;63.10;99708.06;4944722;28;97373;-82
2021/12/04 04:14:04;;;;;;;2.50;2.30;;;;;;;7.68;62.90;99698.88;4945514;28;99823;-85
2021/12/04 04:16:30;;;;;;;2.07;1.97;;;;;;;7.65;63.07;99697.09;4942625;28;97739;-85
2021/12/04 04:18:55;;;;;;;2.83;1.90;;;;;;;7.65;63.13;99692.38;4947856;28;97159;-84
2021/12/04 04:21:21;;;;;;;2.47;2.27;;;;;;;7.64;63.26;99685.44;4946516;28;96860;-83
2021/12/04 04:23:46;;;;;;;2.80;2.47;;;;;;;7.68;62.92;99685.19;4955999;28;100959;-83
2021/12/04 04:26:12;;;;;;;2.07;1.97;;;;;;;7.68;62.92;99691.41;4963453;28;97075;-83
2021/12/04 04:28:38;;;;;;;3.27;2.73;;;;;;;7.67;62.94;99711.03;4943186;28;96759;-83
2021/12/04 04:31:05;;;;;;;2.87;2.67;;;;;;;7.69;63.00;99681.22;4944508;28;97094;-84
2021/12/04 04:33:35;;;;;;;2.43;2.10;;;;;;;7.68;63.05;99682.44;4942437;28;102905;-85
2021/12/04 04:36:22;;;;;;;2.10;2.00;;;;;;;7.69;62.99;99686.69;4942937;28;98927;-84
2021/12/04 05:11:21;;;;;;;3.30;3.10;;;;;;;7.57;62.87;99658.53;4945612;28;96864;-83
2021/12/04 05:13:46;;;;;;;4.03;3.13;;;;;;;7.55;63.02;99656.31;4940424;28;96908;-84
2021/12/04 05:16:16;;;;;;;3.23;2.60;;;;;;;7.52;62.73;99665.50;4943216;28;98597;-84
2021/12/04 05:18:53;;;;;;;7.17;3.50;;;;;;;7.49;62.80;99669.22;4942262;28;102169;-84
2021/12/04 05:21:19;;;;;;;5.07;3.60;;;;;;;7.47;63.06;99690.09;4942057;28;97075;-85
2021/12/04 05:23:48;;;;;;;3.20;2.90;;;;;;;7.49;62.88;99671.22;4944603;28;96992;-84
2021/12/04 05:26:26;;;;;;;3.77;3.00;;;;;;;7.51;62.85;99664.00;4945541;28;100253;-84
2021/12/04 05:28:55;;;;;;;3.10;2.83;;;;;;;7.47;62.80;99668.97;4940926;28;96899;-84
2021/12/04 05:31:21;;;;;;;3.13;2.83;;;;;;;7.44;62.99;99661.00;4946192;28;97389;-84
2021/12/04 05:33:48;;;;;;;3.03;2.80;;;;;;;7.48;62.99;99666.97;4944533;28;97207;-83
2021/12/04 05:36:14;;;;;;;3.70;3.33;;;;;;;7.47;62.98;99663.50;4961118;28;97547;-84
2021/12/04 05:38:40;;;;;;;3.30;2.97;;;;;;;7.48;62.93;99675.94;4942352;28;97476;-84
2021/12/04 05:41:06;;;;;;;3.23;3.03;;;;;;;7.50;62.89;99661.75;4947425;28;96839;-84
2021/12/04 05:43:33;;;;;;;3.70;3.40;;;;;;;7.49;62.85;99663.75;4959561;28;97020;-84
2021/12/04 05:46:18;;;;;;;3.47;3.27;;;;;;;7.49;63.22;99660.28;4943548;28;97086;-84
2021/12/04 05:49:03;;;;;;;2.70;2.50;;;;;;;7.47;63.02;99682.66;4944584;28;102429;-84
2021/12/04 05:56:58;;;;;;;4.13;3.00;;;;;;;7.40;63.13;99661.22;4940882;28;101554;-84
2021/12/04 05:59:24;;;;;;;4.60;3.03;;;;;;;7.40;63.08;99655.75;4943392;28;97415;-84
2021/12/04 06:01:49;;;;;;;3.33;3.03;;;;;;;7.40;62.91;99682.38;4946045;28;96777;-83
2021/12/04 06:04:15;;;;;;;2.93;2.77;;;;;;;7.43;63.17;99687.63;4943946;28;96899;-84
2021/12/04 06:06:40;;;;;;;2.87;2.67;;;;;;;7.43;63.08;99676.66;4943878;28;97002;-84
2021/12/04 06:09:06;;;;;;;2.83;2.63;;;;;;;7.45;63.18;99676.91;4942651;28;97287;-84
2021/12/04 06:11:33;;;;;;;3.70;2.63;;;;;;;7.45;63.11;99673.44;4943514;28;99217;-84
2021/12/04 06:13:58;;;;;;;3.47;3.17;;;;;;;7.44;63.02;99672.69;4941730;28;97540;-84
2021/12/04 06:16:23;;;;;;;2.97;2.77;;;;;;;7.45;62.83;99668.72;4959182;28;99414;-84
2021/12/04 06:18:51;;;;;;;3.90;3.17;;;;;;;7.44;63.14;99672.69;4957940;28;97427;-84
2021/12/04 06:24:03;;;;;;;3.20;2.90;;;;;;;7.44;63.33;99671.94;4944576;28;97353;-84
2021/12/04 06:26:33;;;;;;;3.47;3.03;;;;;;;7.42;63.13;99661.50;4963958;28;98832;-84
2021/12/04 06:28:59;;;;;;;3.10;2.90;;;;;;;7.42;63.00;99658.00;4944199;28;98465;-84
2021/12/04 06:31:25;;;;;;;3.40;3.10;;;;;;;7.39;63.34;99673.44;4943240;28;96727;-85
2021/12/04 06:33:50;;;;;;;3.27;2.83;;;;;;;7.39;62.93;99670.69;4942311;28;97118;-84
2021/12/04 06:36:16;;;;;;;3.70;3.40;;;;;;;7.39;63.14;99667.97;4961382;28;98798;-84
2021/12/04 06:38:41;;;;;;;3.27;2.67;;;;;;;7.41;63.17;99672.94;4958889;28;96959;-84
2021/12/04 06:41:08;;;;;;;3.27;2.97;;;;;;;7.42;63.43;99677.94;4941837;28;97483;-84
2021/12/04 06:43:35;;;;;;;4.27;3.53;;;;;;;7.44;63.31;99696.56;4944770;28;97547;-84
2021/12/04 06:46:04;;;;;;;3.60;3.30;;;;;;;7.40;63.20;99672.16;4943888;28;97532;-84
2021/12/04 06:48:43;;;;;;;3.83;3.07;;;;;;;7.44;63.05;99672.69;4943480;28;100725;-84
2021/12/04 06:53:47;;;;;;;7.63;3.87;;;;;;;7.42;63.13;99677.94;4949501;28;96819;-84
2021/12/04 06:56:12;;;;;;;3.87;3.57;;;;;;;7.41;63.35;99664.72;4941656;28;102801;-84
2021/12/04 06:58:39;;;;;;;6.37;3.30;;;;;;;7.44;63.30;99677.44;4940763;28;96952;-84
2021/12/04 07:01:07;;;;;;;3.90;3.50;;;;;;;7.35;63.21;99703.03;4961897;28;96924;-84
2021/12/04 07:03:33;;;;;;;3.60;3.30;;;;;;;7.40;63.28;99691.31;4943222;28;96922;-84
2021/12/04 07:05:59;;;;;;;4.13;3.73;;;;;;;7.39;63.33;99697.31;4953963;28;97668;-84
2021/12/04 07:08:24;;;;;;;3.30;3.00;;;;;;;7.41;63.32;99661.97;4941373;28;97062;-84
2021/12/04 07:10:49;;;;;;;3.00;2.70;;;;;;;7.38;63.36;99674.66;4942819;28;96890;-85
2021/12/04 07:13:15;;;;;;;3.77;3.37;;;;;;;7.43;63.24;99682.13;4942485;28;97797;-84
2021/12/04 07:15:44;;;;;;;4.37;3.17;;;;;;;7.43;63.29;99678.66;4942580;28;97785;-84
2021/12/04 07:18:09;;;;;;;3.00;2.67;;;;;;;7.42;63.36;99682.66;4939563;28;96956;-84
2021/12/04 07:20:35;;;;;;;3.90;3.40;;;;;;;7.42;63.29;99669.72;4945391;28;97068;-84
2021/12/04 07:23:00;;;;;;;4.27;3.87;;;;;;;7.39;63.36;99678.16;4962440;28;97073;-84
2021/12/04 07:25:27;;;;;;;4.30;3.90;;;;;;;7.41;63.33;99683.88;4942034;28;97025;-84
2021/12/04 07:27:52;;;;;;;3.43;3.13;;;;;;;7.40;63.24;99672.16;4959831;28;99418;-84
2021/12/04 07:30:19;;;;;;;3.90;3.60;;;;;;;7.40;63.33;99671.44;4943246;28;96928;-84
2021/12/04 07:32:45;;;;;;;4.33;3.80;;;;;;;7.39;63.37;99684.38;4943129;28;97231;-84
2021/12/04 07:35:11;;;;;;;3.60;3.30;;;;;;;7.39;63.25;99681.63;4943491;28;98513;-84
2021/12/04 07:37:36;;;;;;;3.67;3.40;;;;;;;7.33;63.45;99669.94;4959371;28;98278;-84
2021/12/04 07:40:03;;;;;;;4.80;4.30;;;;;;;7.37;63.36;99673.19;4942856;28;96957;-84
2021/12/04 07:42:28;;;;;;;7.53;4.60;;;;;;;7.37;63.64;99686.84;4957033;28;97158;-84
2021/12/04 07:44:54;;;;;;;5.10;4.37;;;;;;;7.34;63.57;99662.47;4944279;28;98794;-84
2021/12/04 07:47:19;;;;;;;4.87;3.93;;;;;;;7.35;63.68;99674.91;4943850;28;98451;-84
2021/12/04 07:49:45;;;;;;;4.60;4.20;;;;;;;7.35;63.74;99674.91;4946261;28;97175;-85
2021/12/04 07:52:11;;;;;;;7.80;4.60;;;;;;;7.36;63.50;99660.72;4943039;28;97251;-84
2021/12/04 07:54:37;;;;;;;6.33;4.20;;;;;;;7.37;63.61;99666.94;4941974;28;99058;-85
2021/12/04 07:57:03;;;;;;;4.80;3.83;;;;;;;7.37;63.76;99669.69;4946093;28;102968;-85
2021/12/04 07:59:29;;;;;;;5.33;4.70;;;;;;;7.41;63.51;99667.44;4947395;28;97109;-84
2021/12/04 08:01:58;;;;;;;5.17;4.67;;;;;;;7.39;63.77;99670.69;4946755;28;98395;-84
2021/12/04 08:04:24;;;;;;;5.17;4.70;;;;;;;7.38;63.59;99658.25;4945218;28;97695;-84
2021/12/04 08:06:51;;;;;;;5.33;4.83;;;;;;;7.35;63.64;99648.31;4946253;28;98516;-83
2021/12/04 08:09:17;;;;;;;5.23;4.50;;;;;;;7.35;63.68;99664.72;4946743;28;96944;-84
2021/12/04 08:11:42;;;;;;;5.27;4.50;;;;;;;7.39;63.69;99675.41;4947167;28;96994;-84
2021/12/04 08:14:08;;;;;;;4.30;3.90;;;;;;;7.41;63.75;99683.88;4941440;28;96912;-84
2021/12/04 08:16:33;;;;;;;5.97;4.30;;;;;;;7.42;63.84;99672.44;4947248;28;98865;-84
2021/12/04 08:18:59;;;;;;;6.63;4.90;;;;;;;7.43;63.70;99670.44;4964422;28;96940;-84
2021/12/04 08:21:25;;;;;;;8.63;4.10;;;;;;;7.43;63.51;99689.59;4947303;28;97775;-84
2021/12/04 08:23:50;;;;;;;5.13;4.50;;;;;;;7.46;63.92;99670.22;4946438;28;98386;-84
2021/12/04 08:26:16;;;;;;;4.57;4.20;;;;;;;7.49;63.65;99685.63;4944516;28;99530;-85
2021/12/04 08:28:42;;;;;;;7.40;4.80;;;;;;;7.48;63.43;99673.22;4946063;28;97055;-84
2021/12/04 08:31:07;;;;;;;5.93;4.27;;;;;;;7.46;63.74;99672.94;4946184;28;97152;-84
2021/12/04 08:33:34;;;;;;;5.83;4.67;;;;;;;7.47;63.99;99668.97;4945073;28;99554;-84
2021/12/04 08:36:01;;;;;;;4.37;3.97;;;;;;;7.49;63.77;99669.22;4943314;28;97720;-84
2021/12/04 08:38:26;;;;;;;4.63;4.23;;;;;;;7.51;63.70;99668.75;4940548;28;97343;-84
2021/12/04 08:40:52;;;;;;;4.43;4.03;;;;;;;7.45;63.80;99676.91;4961282;28;97007;-84
2021/12/04 08:43:18;;;;;;;4.07;3.77;;;;;;;7.48;63.93;99675.94;4945352;28;97306;-84
2021/12/04 08:45:43;;;;;;;4.27;3.97;;;;;;;7.49;63.60;99668.50;4944122;28;98201;-84
2021/12/04 08:48:10;;;;;;;4.40;4.00;;;;;;;7.51;63.67;99672.19;4947175;28;96957;-84
2021/12/04 08:50:36;;;;;;;5.20;4.53;;;;;;;7.51;63.63;99666.72;4945469;28;97516;-84
2021/12/04 08:53:03;;;;;;;11.30;4.10;;;;;;;7.53;64.07;99663.50;4946536;28;99915;-85
2021/12/04 08:55:30;;;;;;;5.53;4.57;;;;;;;7.48;63.71;99653.28;4958951;28;98416;-84
2021/12/04 08:57:56;;;;;;;5.00;4.50;;;;;;;7.52;63.95;99651.06;4947775;28;96878;-84
2021/12/04 09:00:33;;;;;;;5.57;3.93;;;;;;;7.60;63.65;99660.28;4943773;28;97039;-84
2021/12/04 09:02:58;;;;;;;4.60;4.20;;;;;;;7.60;63.85;99660.28;4959183;28;97106;-84
2021/12/04 09:05:24;;;;;;;4.93;4.03;;;;;;;7.64;63.85;99662.78;4941765;28;98093;-84
2021/12/04 09:07:51;;;;;;;5.03;4.53;;;;;;;7.69;63.66;99664.78;4945073;28;96758;-84
2021/12/04 09:10:17;;;;;;;4.53;4.13;;;;;;;7.69;63.54;99651.09;4946335;28;97155;-85
2021/12/04 09:12:44;;;;;;;4.90;4.40;;;;;;;7.68;63.78;99650.34;4966454;28;96942;-84
2021/12/04 09:15:12;;;;;;;3.90;3.40;;;;;;;7.70;63.84;99658.81;4943050;28;102137;-84
2021/12/04 09:17:38;;;;;;;5.00;4.50;;;;;;;7.73;63.80;99652.34;4945164;28;97423;-85
2021/12/04 09:20:09;;;;;;;5.53;3.90;;;;;;;7.80;63.70;99651.09;4946348;28;97159;-84
2021/12/04 09:22:36;;;;;;;4.83;3.80;;;;;;;7.79;63.49;99652.34;4959302;28;96803;-84
2021/12/04 09:25:05;;;;;;;5.23;4.10;;;;;;;7.82;63.74;99646.59;4946557;28;98993;-85
2021/12/04 09:36:24;;;;;;;5.73;4.37;;;;;;;7.92;63.51;99664.31;4944647;28;97070;-84
2021/12/04 10:05:32;;;;;;;5.30;4.00;;;;;;;8.02;63.29;99631.91;4941800;28;101701;-84
2021/12/04 10:24:54;;;;;;;5.53;4.67;;;;;;;8.13;63.23;99613.50;4944511;28;97344;-84
2021/12/04 10:33:17;;;;;;;4.87;4.40;;;;;;;8.24;63.30;99593.53;4945700;28;96927;-84
2021/12/04 10:35:44;;;;;;;4.57;4.00;;;;;;;8.26;63.42;99596.56;4947303;28;97703;-84
2021/12/04 10:38:26;;;;;;;5.70;5.10;;;;;;;8.24;63.00;99591.56;4945860;28;99283;-84
2021/12/04 10:40:53;;;;;;;5.07;4.67;;;;;;;8.26;63.11;99574.63;4945164;28;98526;-84
2021/12/04 10:43:21;;;;;;;5.67;5.17;;;;;;;8.30;63.00;99572.38;4961649;28;96933;-84
2021/12/04 10:45:51;;;;;;;5.33;4.83;;;;;;;8.35;63.07;99579.84;4944483;28;97367;-84
2021/12/04 10:48:21;;;;;;;4.87;4.47;;;;;;;8.38;63.25;99584.34;4940985;28;99827;-83
2021/12/04 10:51:08;;;;;;;4.93;4.43;;;;;;;8.40;63.01;99590.06;4942095;28;99586;-84
2021/12/04 10:53:45;;;;;;;5.30;4.80;;;;;;;8.42;63.25;99562.88;4942039;28;97250;-84
2021/12/04 10:56:25;;;;;;;5.97;5.10;;;;;;;8.49;63.22;99583.53;4945011;28;97129;-84
2021/12/04 11:40:07;;;;;;;4.60;4.20;;;;;;;8.90;62.79;99488.38;4941039;28;97540;-84
2021/12/04 11:45:12;;;;;;;5.67;4.60;;;;;;;8.96;62.83;99484.34;4946995;28;96963;-84
2021/12/04 11:47:40;;;;;;;4.70;4.30;;;;;;;9.03;62.69;99480.31;4945826;28;97694;-84
2021/12/04 11:50:25;;;;;;;5.40;4.60;;;;;;;9.09;62.34;99488.53;4941617;28;96836;-85
2021/12/04 11:52:55;;;;;;;5.57;5.03;;;;;;;9.11;62.66;99475.75;4942707;28;99822;-84
2021/12/04 11:55:22;;;;;;;6.93;5.27;;;;;;;9.06;62.48;99491.00;4946704;28;97593;-84
2021/12/04 11:57:49;;;;;;;5.70;4.57;;;;;;;9.13;62.59;99472.53;4945455;28;98546;-85
2021/12/04 12:00:31;;;;;;;4.60;4.27;;;;;;;9.13;61.98;99478.72;4946320;28;96740;-84
2021/12/04 12:03:16;;;;;;;4.70;4.07;;;;;;;9.13;61.94;99472.53;4950545;28;96832;-83
2021/12/04 12:05:45;;;;;;;6.30;3.80;;;;;;;9.14;62.41;99468.50;4947960;28;100795;-84
2021/12/04 12:08:25;;;;;;;5.63;4.10;;;;;;;9.18;62.02;99464.22;4944515;28;96859;-85
2021/12/04 12:10:54;;;;;;;7.97;3.20;;;;;;;9.19;62.51;99462.25;4947857;28;96915;-83
2021/12/04 12:13:28;;;;;;;4.83;4.40;;;;;;;9.23;62.07;99455.22;4945571;28;101129;-84
2021/12/04 12:16:02;;;;;;;3.70;3.40;;;;;;;9.24;62.17;99464.94;4939061;28;100891;-84
2021/12/04 12:18:28;;;;;;;5.20;3.80;;;;;;;9.27;62.25;99474.88;4951734;28;96918;-84
2021/12/04 12:21:01;;;;;;;3.90;3.40;;;;;;;9.33;62.37;99466.59;4947575;28;96969;-84
2021/12/04 12:23:31;;;;;;;4.10;3.60;;;;;;;9.36;62.22;99473.81;4944932;28;102399;-84
2021/12/04 12:26:17;;;;;;;4.20;3.80;;;;;;;9.33;62.01;99483.06;4945197;28;98488;-83
2021/12/04 12:37:24;;;;;;;2.50;2.33;;;;;;;9.20;61.87;99444.50;4943356;28;97275;-84
2021/12/04 12:39:53;;;;;;;2.97;2.70;;;;;;;9.16;62.26;99444.78;4942477;28;97838;-84
2021/12/04 12:42:24;;;;;;;6.07;3.37;;;;;;;9.18;62.22;99439.53;4945255;28;97249;-84
2021/12/04 12:44:50;;;;;;;3.10;2.40;;;;;;;9.21;62.15;99437.78;4942031;28;97467;-84
2021/12/04 12:47:17;;;;;;;3.93;2.70;;;;;;;9.25;62.26;99425.28;4943775;28;97902;-84
2021/12/04 12:49:45;;;;;;;2.70;2.50;;;;;;;9.32;62.34;99426.69;4945404;28;96933;-84
2021/12/04 12:52:24;;;;;;;2.50;2.37;;;;;;;9.41;62.29;99420.88;4943360;28;96904;-84
2021/12/04 12:54:57;;;;;;;3.93;2.40;;;;;;;9.48;62.03;99420.31;4943182;28;100830;-85
2021/12/04 12:57:40;;;;;;;2.50;2.33;;;;;;;9.52;61.76;99415.28;4944922;28;98741;-84
2021/12/04 13:11:41;;;;;;;2.50;2.30;;;;;;;9.38;61.69;99389.72;4943864;28;97044;-84
2021/12/04 13:14:11;;;;;;;2.40;2.30;;;;;;;9.37;61.73;99379.25;4942506;28;97435;-84
2021/12/04 13:16:37;;;;;;;2.30;2.10;;;;;;;9.35;61.85;99395.50;4940742;28;100812;-84
2021/12/04 13:19:08;;;;;;;2.30;2.20;;;;;;;9.30;61.74;99383.31;4938947;28;97340;-85
2021/12/04 13:21:38;;;;;;;2.50;2.27;;;;;;;9.24;61.90;99384.63;4958749;28;97290;-84
2021/12/04 13:24:05;;;;;;;2.90;2.70;;;;;;;9.21;61.85;99374.66;4944345;28;97012;-84
2021/12/04 13:26:34;;;;;;;2.33;2.13;;;;;;;9.19;61.67;99383.41;4944817;28;97790;-84
2021/12/04 13:29:03;;;;;;;2.40;2.20;;;;;;;9.16;61.69;99367.22;4922924;28;96876;-84
2021/12/04 13:31:29;;;;;;;2.90;2.17;;;;;;;9.14;61.98;99372.47;4946414;28;97336;-85
2021/12/04 13:33:55;;;;;;;2.57;2.43;;;;;;;9.05;61.64;99379.06;4948008;28;97759;-84
2021/12/04 13:36:24;;;;;;;2.13;2.03;;;;;;;9.03;61.83;99374.09;4942074;28;97580;-84
2021/12/04 13:39:03;;;;;;;3.23;2.60;;;;;;;9.02;61.68;99386.31;4942602;28;97266;-85
2021/12/04 13:41:29;;;;;;;2.70;2.50;;;;;;;9.01;61.81;99395.78;4946468;28;97028;-84
2021/12/04 13:43:57;;;;;;;3.23;2.50;;;;;;;8.97;62.04;99376.13;4952500;28;96874;-84
2021/12/04 13:46:24;;;;;;;6.37;2.33;;;;;;;8.95;61.85;99367.66;4943572;28;96917;-84
2021/12/04 13:48:50;;;;;;;2.57;2.37;;;;;;;8.97;61.78;99367.91;4913606;28;100625;-85
2021/12/04 13:51:15;;;;;;;3.63;2.80;;;;;;;8.97;61.82;99367.91;4944654;28;97640;-84
2021/12/04 13:53:43;;;;;;;2.80;2.60;;;;;;;8.97;61.85;99367.91;4932745;28;96939;-84
2021/12/04 13:56:15;;;;;;;2.27;2.07;;;;;;;8.93;61.62;99350.25;4957959;28;97695;-84
2021/12/04 13:58:50;;;;;;;2.67;2.47;;;;;;;8.89;61.54;99334.06;4945014;28;100253;-84
2021/12/04 14:01:16;;;;;;;1.90;1.80;;;;;;;8.86;61.96;99331.59;4946385;28;96763;-84
2021/12/04 14:03:42;;;;;;;2.10;1.90;;;;;;;8.83;61.83;99341.59;4959282;28;98648;-84
2021/12/04 14:06:13;;;;;;;1.70;1.60;;;;;;;8.83;61.95;99310.69;4942960;28;98656;-85
2021/12/04 14:08:39;;;;;;;1.60;1.50;;;;;;;8.81;61.91;99322.16;4924207;28;96542;-84
2021/12/04 14:11:05;;;;;;;1.80;1.70;;;;;;;8.79;61.99;99321.19;4944948;28;96750;-85
2021/12/04 14:13:30;;;;;;;2.00;1.90;;;;;;;8.84;62.15;99298.47;4943163;28;96954;-84
2021/12/04 14:15:56;;;;;;;2.47;2.37;;;;;;;8.81;61.95;99297.50;4945853;28;96906;-85
2021/12/04 14:18:24;;;;;;;1.73;1.63;;;;;;;8.76;61.93;99303.00;4940758;28;98202;-84
2021/12/04 14:21:00;;;;;;;2.43;2.23;;;;;;;8.77;62.07;99299.78;4943512;28;98499;-84
2021/12/04 14:23:26;;;;;;;1.83;1.73;;;;;;;8.80;61.97;99287.03;4921302;28;96885;-84
2021/12/04 14:25:55;;;;;;;2.13;2.00;;;;;;;8.78;62.11;99306.72;4942410;28;98629;-84
2021/12/04 14:28:32;;;;;;;2.03;1.93;;;;;;;8.80;61.58;99293.25;4943290;28;96726;-84
2021/12/04 14:30:58;;;;;;;4.30;1.83;;;;;;;8.79;62.05;99302.75;4935177;28;97195;-84
2021/12/04 14:33:25;;;;;;;2.20;2.10;;;;;;;8.76;61.94;99300.28;4943312;28;97381;-85
2021/12/04 14:35:54;;;;;;;2.10;2.00;;;;;;;8.71;61.99;99307.31;4943132;28;96980;-84
2021/12/04 14:38:24;;;;;;;2.40;1.97;;;;;;;8.74;62.03;99295.31;4942861;28;99721;-84
2021/12/04 14:41:02;;;;;;;1.57;1.50;;;;;;;8.75;61.80;99318.00;4943448;28;96830;-84
2021/12/04 14:43:32;;;;;;;2.20;2.03;;;;;;;8.76;62.17;99333.16;4942630;28;97152;-85
2021/12/04 14:45:59;;;;;;;1.80;1.70;;;;;;;8.75;61.89;99310.50;4947304;28;97452;-84
2021/12/04 14:48:34;;;;;;;2.20;2.00;;;;;;;8.75;61.97;99318.75;4939409;28;99742;-85
2021/12/04 14:51:06;;;;;;;1.97;1.80;;;;;;;8.72;62.02;99319.75;4941741;28;97274;-85
2021/12/04 14:53:38;;;;;;;2.50;2.30;;;;;;;8.64;61.84;99313.34;4937813;28;97136;-84